Time;durP1;ratioP1;P1;durP2;ratioP2;P2;SDS_P1;SDS_P2;PMS_P1;PMS_P2;Temp;Humidity;BMP_temperature;BMP_pressure;BME280_temperature;BME280_humidity;BME280_pressure;Samples;Min_cycle;Max_cycle;Signal;HPM_P1;HPM_P2
2022/05/24 00:00:22;;;;;;;5.67;4.27;;;19.10;99.90;;;;;;4981109;28;20209;-70
2022/05/24 00:02:48;;;;;;;5.30;4.13;;;18.90;99.90;;;;;;4979002;28;20952;-70
2022/05/24 00:05:15;;;;;;;4.10;3.80;;;18.90;99.90;;;;;;4977706;28;20437;-70
2022/05/24 00:07:41;;;;;;;4.67;4.27;;;19.00;99.90;;;;;;4983164;28;20955;-70
2022/05/24 00:10:11;;;;;;;4.77;4.30;;;18.90;99.90;;;;;;4979943;28;20547;-70
2022/05/24 00:12:38;;;;;;;4.27;3.93;;;18.80;99.90;;;;;;4981212;28;20919;-71
2022/05/24 00:15:27;;;;;;;5.13;4.30;;;18.80;99.90;;;;;;4980912;28;20452;-70
2022/05/24 00:18:07;;;;;;;4.73;4.33;;;18.90;99.90;;;;;;4979214;28;20441;-71
2022/05/24 00:20:40;;;;;;;6.57;4.00;;;18.90;99.90;;;;;;4979231;28;20892;-70
2022/05/24 00:23:07;;;;;;;5.20;3.60;;;19.00;99.90;;;;;;4978608;28;20460;-71
2022/05/24 00:25:36;;;;;;;5.00;4.07;;;19.10;99.90;;;;;;4980422;28;20563;-71
2022/05/24 00:28:03;;;;;;;4.70;4.30;;;18.90;99.90;;;;;;4979841;28;20473;-70
2022/05/24 00:30:29;;;;;;;4.80;4.40;;;18.80;99.90;;;;;;4981797;28;20488;-70
2022/05/24 00:32:55;;;;;;;4.90;4.40;;;18.90;99.90;;;;;;4984883;28;20429;-70
2022/05/24 00:35:21;;;;;;;4.60;4.20;;;18.80;99.90;;;;;;4986050;28;20461;-70
2022/05/24 00:37:48;;;;;;;7.83;5.53;;;18.80;99.90;;;;;;4981491;28;20440;-70
2022/05/24 00:40:33;;;;;;;5.13;4.70;;;18.80;99.90;;;;;;4983714;28;21499;-70
2022/05/24 00:43:06;;;;;;;4.43;4.03;;;18.80;99.90;;;;;;4983855;28;20463;-70
2022/05/24 00:45:38;;;;;;;5.70;5.10;;;18.70;99.90;;;;;;4984212;28;20972;-70
2022/05/24 00:48:08;;;;;;;5.37;4.87;;;18.70;99.90;;;;;;4983230;28;20437;-70
2022/05/24 00:50:44;;;;;;;5.70;4.70;;;18.70;99.90;;;;;;4985545;28;20444;-70
2022/05/24 00:53:22;;;;;;;5.23;4.70;;;18.70;99.90;;;;;;4984596;28;20467;-69
2022/05/24 00:55:54;;;;;;;5.73;5.10;;;18.70;99.90;;;;;;4986283;28;20444;-70
2022/05/24 00:58:38;;;;;;;5.80;5.17;;;18.50;99.90;;;;;;4982906;28;20487;-70
2022/05/24 01:01:20;;;;;;;10.90;4.97;;;18.50;99.90;;;;;;4982004;28;20519;-70
2022/05/24 01:03:45;;;;;;;6.50;4.90;;;18.60;99.90;;;;;;4982473;28;20500;-72
2022/05/24 01:06:11;;;;;;;7.10;4.90;;;18.70;99.90;;;;;;4985053;28;21152;-71
2022/05/24 01:08:37;;;;;;;7.17;6.17;;;18.70;99.90;;;;;;4985462;28;20204;-72
2022/05/24 01:11:03;;;;;;;7.70;5.57;;;18.50;99.90;;;;;;4983869;28;20607;-71
2022/05/24 01:13:31;;;;;;;6.63;5.43;;;18.50;99.90;;;;;;4985832;28;20193;-72
2022/05/24 01:15:57;;;;;;;5.57;4.77;;;18.30;99.90;;;;;;4981527;28;20475;-70
2022/05/24 01:18:24;;;;;;;10.50;5.13;;;18.40;99.90;;;;;;4986199;28;20479;-70
2022/05/24 01:21:00;;;;;;;5.43;4.93;;;18.50;99.90;;;;;;4983397;28;20473;-70
2022/05/24 01:23:38;;;;;;;7.53;5.40;;;18.40;99.90;;;;;;4983140;28;20438;-70
2022/05/24 01:26:35;;;;;;;4.83;4.43;;;18.50;99.90;;;;;;4983544;28;20452;-70
2022/05/24 01:29:07;;;;;;;6.57;4.50;;;18.70;99.90;;;;;;4961217;28;20886;-71
2022/05/24 01:37:27;;;;;;;5.43;4.93;;;18.60;99.90;;;;;;4922984;29;20952;-70
2022/05/24 01:39:56;;;;;;;4.90;4.50;;;18.70;99.90;;;;;;4920842;29;20471;-70
2022/05/24 01:42:23;;;;;;;5.80;5.03;;;18.60;99.90;;;;;;4952391;28;21161;-70
2022/05/24 01:45:11;;;;;;;5.17;4.67;;;18.70;99.90;;;;;;4982951;28;20437;-70
2022/05/24 01:47:39;;;;;;;5.53;4.40;;;18.70;99.90;;;;;;4981893;28;20503;-70
2022/05/24 01:50:11;;;;;;;5.27;4.70;;;18.70;99.90;;;;;;4982406;28;20452;-70
2022/05/24 01:52:41;;;;;;;5.73;5.03;;;18.60;99.90;;;;;;4979543;28;20510;-70
2022/05/24 01:55:20;;;;;;;7.00;5.93;;;18.60;99.90;;;;;;4980302;28;21045;-70
2022/05/24 01:57:50;;;;;;;6.90;6.20;;;18.50;99.90;;;;;;4983831;28;20432;-70
2022/05/24 02:00:17;;;;;;;7.40;5.23;;;18.40;99.90;;;;;;4981523;28;20472;-70
2022/05/24 02:02:43;;;;;;;6.10;5.37;;;18.40;99.90;;;;;;4979769;28;20867;-72
2022/05/24 02:05:10;;;;;;;10.57;5.03;;;18.30;99.90;;;;;;4964248;28;20495;-70
2022/05/24 02:07:36;;;;;;;5.40;4.90;;;18.30;99.90;;;;;;4982771;28;20826;-70
2022/05/24 02:10:03;;;;;;;5.63;5.13;;;18.30;99.90;;;;;;4980930;28;20471;-70
2022/05/24 02:12:37;;;;;;;5.80;5.20;;;18.40;99.90;;;;;;4981289;28;20492;-69
2022/05/24 02:15:12;;;;;;;6.70;5.63;;;18.40;99.90;;;;;;4982158;28;20439;-69
2022/05/24 02:17:43;;;;;;;5.83;5.03;;;18.20;99.90;;;;;;4981697;28;20527;-70
2022/05/24 02:20:15;;;;;;;6.17;5.07;;;18.20;99.90;;;;;;4980762;28;20846;-69
2022/05/24 02:22:41;;;;;;;7.50;4.60;;;18.30;99.90;;;;;;4985841;28;20441;-70
2022/05/24 02:25:15;;;;;;;5.50;5.00;;;18.30;99.90;;;;;;4989313;28;20553;-70
2022/05/24 02:27:43;;;;;;;5.20;4.70;;;18.40;99.90;;;;;;4981824;28;20555;-69
2022/05/24 02:30:18;;;;;;;8.20;5.30;;;18.50;99.90;;;;;;4985103;28;20512;-69
2022/05/24 02:32:44;;;;;;;5.50;4.70;;;18.30;99.90;;;;;;4986215;28;20436;-69
2022/05/24 02:35:10;;;;;;;6.80;4.93;;;18.20;99.90;;;;;;4985920;28;20455;-69
2022/05/24 02:37:37;;;;;;;5.43;4.93;;;18.30;99.90;;;;;;4985710;28;21115;-69
2022/05/24 02:42:48;;;;;;;5.43;4.30;;;18.30;99.90;;;;;;4987203;28;20460;-69
2022/05/24 02:45:13;;;;;;;4.73;4.33;;;18.20;99.90;;;;;;4984515;28;20433;-68
2022/05/24 02:47:40;;;;;;;7.07;4.60;;;18.10;99.90;;;;;;4985908;28;20213;-69
2022/05/24 02:50:09;;;;;;;5.10;4.43;;;18.20;99.90;;;;;;4983873;28;20209;-69
2022/05/24 02:52:36;;;;;;;4.30;3.90;;;18.20;99.90;;;;;;4984671;28;20440;-69
2022/05/24 02:55:03;;;;;;;5.60;5.00;;;18.30;99.90;;;;;;4966055;28;20472;-69
2022/05/24 02:57:28;;;;;;;4.97;4.53;;;18.30;99.90;;;;;;4985351;28;20440;-69
2022/05/24 02:59:54;;;;;;;5.93;4.50;;;18.30;99.90;;;;;;4985885;28;20464;-69
2022/05/24 03:02:20;;;;;;;4.90;4.50;;;18.30;99.90;;;;;;4983691;28;20249;-69
2022/05/24 03:04:45;;;;;;;5.37;4.40;;;18.30;99.90;;;;;;4966620;28;20273;-69
2022/05/24 03:09:55;;;;;;;6.17;5.57;;;18.20;99.90;;;;;;4983772;28;20328;-69
2022/05/24 03:15:05;;;;;;;5.90;5.30;;;18.10;99.90;;;;;;4984662;28;20189;-68
2022/05/24 03:17:31;;;;;;;6.43;5.30;;;18.10;99.90;;;;;;4985888;28;20820;-68
2022/05/24 03:19:57;;;;;;;5.43;4.93;;;18.00;99.90;;;;;;4984956;28;20457;-69
2022/05/24 03:22:23;;;;;;;5.93;5.13;;;18.00;99.90;;;;;;4983855;28;20880;-69
2022/05/24 03:24:48;;;;;;;5.20;4.73;;;18.00;99.90;;;;;;4986029;28;20189;-69
2022/05/24 03:27:14;;;;;;;5.63;5.03;;;18.00;99.90;;;;;;4984553;28;20261;-69
2022/05/24 03:29:44;;;;;;;5.30;4.80;;;18.00;99.90;;;;;;4984909;28;20210;-69
2022/05/24 03:32:11;;;;;;;5.13;4.63;;;18.10;99.90;;;;;;4984005;28;20240;-68
2022/05/24 03:34:38;;;;;;;5.03;4.57;;;18.00;99.90;;;;;;4984822;28;20440;-68
2022/05/24 03:37:05;;;;;;;5.00;4.50;;;18.00;99.90;;;;;;4984165;28;20449;-69
2022/05/24 03:39:31;;;;;;;5.03;4.47;;;18.00;99.90;;;;;;4984537;28;20472;-70
2022/05/24 03:41:56;;;;;;;6.43;4.33;;;18.10;99.90;;;;;;4983483;28;20499;-69
2022/05/24 03:44:22;;;;;;;5.40;4.90;;;18.00;99.90;;;;;;4984300;28;20833;-70
2022/05/24 03:46:47;;;;;;;4.97;4.50;;;18.10;99.90;;;;;;4982425;28;20262;-70
2022/05/24 03:49:14;;;;;;;6.23;5.10;;;18.00;99.90;;;;;;4983577;28;20194;-69
2022/05/24 03:51:40;;;;;;;6.67;5.83;;;17.90;99.90;;;;;;4986506;28;20205;-69
2022/05/24 03:54:06;;;;;;;5.73;5.13;;;17.80;99.90;;;;;;4984056;28;20445;-69
2022/05/24 03:56:36;;;;;;;7.67;5.20;;;17.80;99.90;;;;;;4984289;28;20507;-70
2022/05/24 03:59:03;;;;;;;4.83;4.27;;;17.80;99.90;;;;;;4984627;28;20457;-69
2022/05/24 04:01:29;;;;;;;4.13;3.73;;;17.80;99.90;;;;;;4983575;28;20437;-69
2022/05/24 04:03:55;;;;;;;5.13;3.73;;;17.90;99.90;;;;;;4984684;28;20460;-69
2022/05/24 04:06:20;;;;;;;4.50;4.10;;;17.90;99.90;;;;;;4984378;28;20936;-69
2022/05/24 04:08:46;;;;;;;4.13;3.63;;;18.00;99.90;;;;;;4984903;28;20978;-70
2022/05/24 04:11:12;;;;;;;3.40;3.10;;;17.90;99.90;;;;;;4983636;28;20196;-70
2022/05/24 04:13:41;;;;;;;3.57;3.27;;;18.00;99.90;;;;;;4984759;28;20248;-69
2022/05/24 04:16:08;;;;;;;4.27;3.50;;;18.10;99.90;;;;;;4982811;28;21053;-69
2022/05/24 04:18:35;;;;;;;3.70;3.30;;;18.10;99.90;;;;;;4987618;28;20477;-69
2022/05/24 04:21:01;;;;;;;7.17;3.40;;;18.20;99.90;;;;;;4985057;28;20487;-68
2022/05/24 04:23:27;;;;;;;7.03;3.90;;;18.30;99.90;;;;;;4982242;28;20439;-68
2022/05/24 04:25:53;;;;;;;3.43;3.13;;;18.40;99.90;;;;;;4984261;28;20475;-69
2022/05/24 04:28:19;;;;;;;5.30;3.40;;;18.40;99.90;;;;;;4982062;28;20185;-69
2022/05/24 04:30:47;;;;;;;6.17;3.13;;;18.50;99.90;;;;;;4983240;28;20455;-69
2022/05/24 04:33:13;;;;;;;3.67;3.30;;;18.50;99.90;;;;;;4980822;28;20552;-69
2022/05/24 04:35:39;;;;;;;3.00;2.70;;;18.30;99.90;;;;;;4984112;28;20759;-69
2022/05/24 04:38:04;;;;;;;6.33;3.20;;;18.30;99.90;;;;;;4981823;28;20471;-69
2022/05/24 04:43:14;;;;;;;3.53;3.23;;;18.30;99.90;;;;;;4982186;28;20212;-69
2022/05/24 04:45:40;;;;;;;4.30;2.73;;;18.20;99.90;;;;;;4983182;28;20624;-69
2022/05/24 04:48:06;;;;;;;3.27;2.97;;;18.30;99.90;;;;;;4982872;28;20193;-69
2022/05/24 04:50:32;;;;;;;8.13;2.67;;;18.20;99.90;;;;;;4964819;28;20242;-69
2022/05/24 04:52:58;;;;;;;3.00;2.70;;;18.10;99.90;;;;;;4981628;28;20446;-70
2022/05/24 04:55:26;;;;;;;3.20;2.90;;;18.20;99.90;;;;;;4986620;28;20448;-69
2022/05/24 04:57:53;;;;;;;3.90;3.50;;;18.10;99.90;;;;;;4981287;28;20626;-69
2022/05/24 05:00:20;;;;;;;3.70;2.90;;;18.20;99.90;;;;;;4983988;28;20718;-69
2022/05/24 05:02:46;;;;;;;3.67;2.63;;;18.20;99.90;;;;;;4982299;28;20469;-69
2022/05/24 05:05:13;;;;;;;3.00;2.70;;;18.30;99.90;;;;;;4981922;28;20525;-69
2022/05/24 05:07:39;;;;;;;3.37;2.90;;;18.40;99.90;;;;;;4982841;28;21106;-69
2022/05/24 05:10:05;;;;;;;3.00;2.70;;;18.50;99.90;;;;;;4982636;28;20473;-68
2022/05/24 05:12:31;;;;;;;4.53;2.90;;;18.40;99.90;;;;;;4983458;28;20476;-68
2022/05/24 05:14:56;;;;;;;3.20;2.90;;;18.50;99.90;;;;;;4966553;28;20465;-68
2022/05/24 05:17:22;;;;;;;4.63;2.90;;;18.50;99.90;;;;;;4981892;28;20194;-69
2022/05/24 05:19:48;;;;;;;3.03;2.70;;;18.50;99.90;;;;;;4982593;28;20768;-69
2022/05/24 05:22:14;;;;;;;3.53;2.80;;;18.60;99.90;;;;;;4981822;28;20268;-69
2022/05/24 05:24:40;;;;;;;4.60;2.60;;;18.70;99.90;;;;;;4983119;28;20186;-69
2022/05/24 05:27:06;;;;;;;3.60;3.00;;;18.70;99.90;;;;;;4980394;28;20441;-69
2022/05/24 05:32:22;;;;;;;3.10;2.63;;;18.80;99.90;;;;;;4980245;28;20208;-71
2022/05/24 05:34:49;;;;;;;2.73;2.53;;;18.80;99.90;;;;;;4982666;28;20445;-70
2022/05/24 05:37:15;;;;;;;2.60;2.20;;;18.80;99.90;;;;;;4981986;28;20433;-70
2022/05/24 05:39:41;;;;;;;2.53;2.30;;;18.80;99.90;;;;;;4966126;28;20476;-69
2022/05/24 05:42:07;;;;;;;2.97;2.70;;;18.80;99.90;;;;;;4983762;28;20460;-68
2022/05/24 05:44:33;;;;;;;4.00;2.20;;;18.80;99.90;;;;;;4982460;28;20433;-71
2022/05/24 05:46:58;;;;;;;3.37;2.60;;;18.90;99.90;;;;;;4981610;28;20504;-70
2022/05/24 05:49:24;;;;;;;2.70;2.50;;;18.80;99.90;;;;;;4980723;28;20209;-70
2022/05/24 05:51:49;;;;;;;3.53;2.97;;;18.70;99.90;;;;;;4982910;28;20190;-70
2022/05/24 05:54:15;;;;;;;4.50;3.17;;;18.60;99.90;;;;;;4981859;28;20186;-70
2022/05/24 05:56:41;;;;;;;7.03;3.10;;;18.50;99.90;;;;;;4980372;28;20186;-70
2022/05/24 05:59:08;;;;;;;4.13;3.40;;;18.20;99.90;;;;;;4980960;28;20461;-70
2022/05/24 06:01:33;;;;;;;3.60;1.90;;;17.80;99.90;;;;;;4982821;28;20514;-70
2022/05/24 06:04:00;;;;;;;2.07;1.87;;;17.30;99.90;;;;;;4981858;28;20569;-70
2022/05/24 06:06:29;;;;;;;3.63;2.00;;;17.10;99.90;;;;;;4981574;28;20193;-70
2022/05/24 06:08:55;;;;;;;2.53;2.10;;;16.90;99.90;;;;;;4982158;28;20483;-70
2022/05/24 06:11:22;;;;;;;2.10;1.90;;;16.80;99.90;;;;;;4983043;28;20818;-71
2022/05/24 06:13:48;;;;;;;4.90;2.50;;;16.70;99.90;;;;;;4985589;28;20182;-69
2022/05/24 06:16:14;;;;;;;2.13;1.87;;;16.70;99.90;;;;;;4980927;28;20441;-70
2022/05/24 06:18:40;;;;;;;2.70;1.80;;;16.80;99.90;;;;;;4982391;28;20475;-71
2022/05/24 06:21:06;;;;;;;9.93;2.13;;;16.80;99.90;;;;;;4983219;28;20585;-69
2022/05/24 06:23:31;;;;;;;3.60;1.83;;;16.90;99.90;;;;;;4982148;28;20437;-69
2022/05/24 06:25:57;;;;;;;2.40;1.73;;;16.90;99.90;;;;;;4981687;28;20183;-69
2022/05/24 06:28:23;;;;;;;2.70;1.60;;;17.00;99.90;;;;;;4983445;28;20467;-69
2022/05/24 06:30:49;;;;;;;3.00;1.57;;;17.10;99.90;;;;;;4982296;28;20186;-70
2022/05/24 06:33:14;;;;;;;1.90;1.30;;;17.10;99.90;;;;;;4982531;28;20232;-69
2022/05/24 06:35:41;;;;;;;2.97;1.63;;;17.20;99.90;;;;;;4981533;28;20186;-69
2022/05/24 06:38:07;;;;;;;3.80;1.60;;;17.20;99.90;;;;;;4982511;28;20198;-70
2022/05/24 06:40:33;;;;;;;2.07;1.53;;;17.20;99.90;;;;;;4982895;28;21014;-69
2022/05/24 06:42:59;;;;;;;6.50;2.53;;;17.20;99.90;;;;;;4981680;28;20447;-69
2022/05/24 06:45:25;;;;;;;3.87;1.47;;;17.20;99.90;;;;;;4981488;28;20430;-69
2022/05/24 06:47:51;;;;;;;4.13;1.77;;;17.20;99.90;;;;;;4977687;28;20178;-68
2022/05/24 06:50:17;;;;;;;4.20;1.83;;;17.30;99.90;;;;;;4980534;28;20629;-68
2022/05/24 06:52:42;;;;;;;3.07;1.70;;;17.40;99.90;;;;;;4983272;28;20186;-70
2022/05/24 06:55:09;;;;;;;5.20;1.50;;;17.40;99.90;;;;;;4980030;28;20565;-68
2022/05/24 06:57:35;;;;;;;2.37;1.93;;;17.20;99.90;;;;;;4982194;28;20193;-68
2022/05/24 07:02:46;;;;;;;2.57;1.63;;;17.20;99.90;;;;;;4979239;28;20189;-69
2022/05/24 07:05:16;;;;;;;4.27;1.97;;;17.20;99.90;;;;;;4981913;28;20424;-70
2022/05/24 07:07:42;;;;;;;3.73;3.43;;;17.10;99.90;;;;;;4980495;28;20479;-70
2022/05/24 07:10:09;;;;;;;1.90;1.70;;;17.00;99.90;;;;;;4984252;28;20497;-70
2022/05/24 07:12:35;;;;;;;4.47;1.60;;;16.90;99.90;;;;;;4983726;28;20192;-69
2022/05/24 07:15:01;;;;;;;2.27;1.60;;;16.90;99.90;;;;;;4984170;28;20448;-69
2022/05/24 07:17:27;;;;;;;7.87;1.80;;;16.90;99.90;;;;;;4984968;28;20182;-69
2022/05/24 07:19:53;;;;;;;2.33;1.47;;;16.90;99.90;;;;;;4984706;28;20217;-69
2022/05/24 07:22:19;;;;;;;7.27;1.87;;;17.00;99.90;;;;;;4981857;28;20433;-69
2022/05/24 07:24:48;;;;;;;3.70;1.70;;;17.00;99.90;;;;;;4982686;28;20491;-69
2022/05/24 07:27:17;;;;;;;9.43;2.13;;;17.10;99.90;;;;;;4985611;28;20444;-69
2022/05/24 07:29:43;;;;;;;2.77;1.50;;;17.20;99.90;;;;;;4983544;28;20461;-69
2022/05/24 07:32:09;;;;;;;1.97;1.50;;;17.20;99.90;;;;;;4984115;28;20437;-69
2022/05/24 07:34:36;;;;;;;2.43;1.60;;;16.80;99.90;;;;;;4984297;28;20524;-69
2022/05/24 07:37:03;;;;;;;2.30;1.53;;;16.90;99.90;;;;;;4982617;28;20239;-69
2022/05/24 07:39:29;;;;;;;2.00;1.70;;;17.10;99.90;;;;;;4982105;28;20472;-69
2022/05/24 07:47:28;;;;;;;4.77;1.67;;;17.30;99.90;;;;;;4984236;28;20483;-69
2022/05/24 07:49:53;;;;;;;2.03;1.43;;;17.40;99.90;;;;;;4985093;28;20549;-69
2022/05/24 07:52:19;;;;;;;2.67;1.60;;;17.40;99.90;;;;;;4984572;28;20560;-69
2022/05/24 07:54:44;;;;;;;2.47;1.60;;;17.40;99.90;;;;;;4986040;28;20190;-69
2022/05/24 07:57:10;;;;;;;3.67;1.70;;;17.30;99.90;;;;;;4983742;28;20255;-69
2022/05/24 07:59:37;;;;;;;2.87;1.60;;;17.10;99.90;;;;;;4982786;28;20210;-70
2022/05/24 08:02:06;;;;;;;1.80;1.30;;;17.20;99.90;;;;;;4986067;28;20488;-69
2022/05/24 08:04:32;;;;;;;2.60;1.80;;;17.20;99.90;;;;;;4984039;28;20483;-69
2022/05/24 08:06:58;;;;;;;2.17;1.77;;;17.10;99.90;;;;;;4985907;28;20441;-69
2022/05/24 08:09:23;;;;;;;4.70;1.90;;;17.30;99.90;;;;;;4987618;28;20205;-70
2022/05/24 08:11:49;;;;;;;2.73;1.67;;;17.40;99.90;;;;;;4987592;28;20855;-68
2022/05/24 08:14:14;;;;;;;2.77;1.80;;;17.50;99.90;;;;;;4985567;28;20173;-68
2022/05/24 08:16:40;;;;;;;6.90;2.07;;;17.30;99.90;;;;;;4986181;28;20208;-69
2022/05/24 08:19:08;;;;;;;2.83;1.60;;;17.20;99.90;;;;;;4964348;28;20222;-69
2022/05/24 08:21:34;;;;;;;2.73;1.57;;;17.20;99.90;;;;;;4985400;28;20200;-70
2022/05/24 08:24:00;;;;;;;2.07;1.60;;;17.40;99.90;;;;;;4984043;28;20776;-69
2022/05/24 08:26:26;;;;;;;2.73;1.90;;;17.40;99.90;;;;;;4983000;28;20425;-69
2022/05/24 08:28:51;;;;;;;2.23;1.60;;;17.50;99.90;;;;;;4980820;28;20209;-69
2022/05/24 08:31:18;;;;;;;1.73;1.60;;;17.30;99.90;;;;;;4981244;28;20186;-71
2022/05/24 08:33:44;;;;;;;7.07;1.80;;;17.30;99.90;;;;;;4980938;28;20260;-69
2022/05/24 08:36:11;;;;;;;2.13;1.70;;;17.30;99.90;;;;;;4982706;28;20439;-70
2022/05/24 08:38:39;;;;;;;1.77;1.50;;;17.30;99.90;;;;;;4983845;28;20555;-70
2022/05/24 08:41:09;;;;;;;2.83;1.90;;;17.30;99.90;;;;;;4982334;28;20524;-69
2022/05/24 08:43:53;;;;;;;1.90;1.50;;;17.50;99.90;;;;;;4983966;28;20441;-69
2022/05/24 08:49:14;;;;;;;2.07;1.53;;;17.70;99.90;;;;;;4983355;28;20538;-69
2022/05/24 08:51:42;;;;;;;2.23;1.50;;;17.50;99.90;;;;;;4982978;28;20473;-69
2022/05/24 08:54:17;;;;;;;3.30;1.70;;;17.70;99.90;;;;;;4981215;28;20481;-69
2022/05/24 08:56:57;;;;;;;1.87;1.53;;;17.70;99.90;;;;;;4981318;28;20546;-69
2022/05/24 08:59:29;;;;;;;2.67;1.93;;;17.80;99.90;;;;;;4963033;28;20522;-69
2022/05/24 09:01:56;;;;;;;4.00;1.73;;;17.80;99.90;;;;;;4982689;28;20457;-70
2022/05/24 09:04:23;;;;;;;4.80;2.00;;;17.80;99.90;;;;;;4983451;28;20479;-69
2022/05/24 09:07:04;;;;;;;2.43;1.67;;;17.90;99.90;;;;;;4982769;28;20782;-70
2022/05/24 09:09:44;;;;;;;1.80;1.50;;;17.90;99.90;;;;;;4983127;28;20527;-70
2022/05/24 09:12:40;;;;;;;2.60;1.50;;;17.90;99.90;;;;;;4978891;28;20438;-69
2022/05/24 09:15:30;;;;;;;2.77;2.53;;;17.90;99.90;;;;;;4979697;28;20451;-70
2022/05/24 09:18:20;;;;;;;3.83;1.60;;;17.90;99.90;;;;;;4982111;28;20433;-70
2022/05/24 09:20:46;;;;;;;2.00;1.77;;;18.00;99.90;;;;;;4982651;28;20473;-71
2022/05/24 09:23:15;;;;;;;2.80;1.60;;;18.10;99.90;;;;;;4982388;28;20437;-70
2022/05/24 09:25:58;;;;;;;1.93;1.60;;;18.10;99.90;;;;;;4983471;28;20439;-70
2022/05/24 09:28:50;;;;;;;2.07;1.60;;;18.20;99.90;;;;;;4981434;28;20524;-70
2022/05/24 09:31:38;;;;;;;3.20;1.70;;;18.30;99.90;;;;;;4982007;28;20442;-71
2022/05/24 09:34:21;;;;;;;3.17;1.60;;;18.50;99.90;;;;;;4978940;28;20470;-71
2022/05/24 09:37:03;;;;;;;2.30;1.63;;;18.60;99.90;;;;;;4942801;28;20588;-72
2022/05/24 09:39:32;;;;;;;2.33;2.13;;;18.60;99.90;;;;;;4978801;28;20583;-71
2022/05/24 09:41:59;;;;;;;2.10;1.50;;;18.50;99.90;;;;;;4978419;28;22384;-70
2022/05/24 09:44:26;;;;;;;2.03;1.60;;;18.50;99.90;;;;;;4977566;28;20444;-70
2022/05/24 09:46:52;;;;;;;2.00;1.60;;;18.50;99.90;;;;;;4979948;28;20433;-70
2022/05/24 09:49:33;;;;;;;4.37;2.00;;;18.60;99.90;;;;;;4979139;28;20830;-72
2022/05/24 09:52:11;;;;;;;1.90;1.70;;;18.70;99.90;;;;;;4980323;28;20494;-72
2022/05/24 09:54:51;;;;;;;1.97;1.63;;;18.70;99.90;;;;;;4982589;28;20467;-71
2022/05/24 09:57:22;;;;;;;2.10;1.70;;;18.70;99.90;;;;;;4980978;28;20433;-72
2022/05/24 10:00:06;;;;;;;2.17;1.60;;;18.70;99.90;;;;;;4981677;28;21065;-71
2022/05/24 10:02:34;;;;;;;2.03;1.70;;;18.70;99.90;;;;;;4983328;28;20469;-72
2022/05/24 10:05:01;;;;;;;2.20;1.63;;;18.80;99.90;;;;;;4980779;28;20455;-72
2022/05/24 10:07:30;;;;;;;2.10;1.80;;;18.70;99.90;;;;;;4983505;28;21655;-71
2022/05/24 10:10:02;;;;;;;1.67;1.57;;;18.80;99.90;;;;;;4985831;28;20456;-72
2022/05/24 10:12:41;;;;;;;2.30;1.60;;;18.80;99.90;;;;;;4978045;28;20499;-71
2022/05/24 10:15:18;;;;;;;2.40;1.80;;;18.80;99.90;;;;;;4983296;28;20433;-72
2022/05/24 10:18:08;;;;;;;2.07;1.87;;;18.80;99.90;;;;;;4984475;28;20802;-71
2022/05/24 10:20:49;;;;;;;2.33;1.80;;;19.00;99.90;;;;;;4984969;28;20473;-74
2022/05/24 10:23:30;;;;;;;2.13;1.90;;;19.00;99.90;;;;;;4981292;28;20432;-75
2022/05/24 10:26:10;;;;;;;2.10;1.63;;;19.10;99.90;;;;;;4981615;28;20449;-74
2022/05/24 10:28:46;;;;;;;2.30;2.10;;;19.10;99.90;;;;;;4986139;28;20869;-75
2022/05/24 10:31:54;;;;;;;3.53;2.40;;;19.40;99.90;;;;;;4967599;28;20531;-75
2022/05/24 10:40:43;;;;;;;2.53;1.90;;;19.60;99.90;;;;;;4986523;28;20824;-74
2022/05/24 10:43:27;;;;;;;1.97;1.70;;;19.60;99.90;;;;;;4988296;28;20440;-74
2022/05/24 10:46:04;;;;;;;2.30;2.10;;;19.50;99.90;;;;;;4988641;28;20420;-75
2022/05/24 10:48:48;;;;;;;2.77;1.70;;;19.70;99.90;;;;;;4988945;28;21282;-74
2022/05/24 10:51:26;;;;;;;2.23;1.60;;;19.70;99.90;;;;;;4987212;28;21019;-74
2022/05/24 10:54:02;;;;;;;1.60;1.50;;;19.90;99.90;;;;;;4987191;28;20766;-74
2022/05/24 10:56:53;;;;;;;2.20;2.00;;;19.70;99.90;;;;;;4985002;28;20923;-74
2022/05/24 10:59:44;;;;;;;2.27;1.90;;;19.70;99.90;;;;;;4988680;28;20459;-74
2022/05/24 11:02:25;;;;;;;2.17;1.90;;;19.90;99.90;;;;;;4986613;28;20442;-73
2022/05/24 11:05:18;;;;;;;2.43;2.10;;;20.20;99.90;;;;;;4984774;28;20460;-74
2022/05/24 11:07:46;;;;;;;3.70;2.00;;;20.40;99.90;;;;;;4984604;28;20440;-74
2022/05/24 11:10:24;;;;;;;2.00;1.60;;;20.50;99.90;;;;;;4982849;28;20456;-74
2022/05/24 11:12:52;;;;;;;2.43;1.70;;;20.50;99.90;;;;;;4983158;28;20472;-75
2022/05/24 11:15:24;;;;;;;2.90;1.80;;;20.50;99.90;;;;;;4981593;28;20430;-75
2022/05/24 11:17:50;;;;;;;2.23;1.90;;;20.30;99.90;;;;;;4983799;28;20433;-75
2022/05/24 11:20:23;;;;;;;3.30;2.00;;;20.10;99.90;;;;;;4984693;28;20465;-74
2022/05/24 11:23:10;;;;;;;3.17;1.80;;;20.10;99.90;;;;;;4986627;28;20432;-74
2022/05/24 11:25:47;;;;;;;1.90;1.70;;;20.10;99.90;;;;;;4985604;28;20425;-75
2022/05/24 11:28:33;;;;;;;3.33;1.90;;;20.10;99.90;;;;;;4985996;28;20429;-75
2022/05/24 11:31:41;;;;;;;1.80;1.63;;;20.30;99.90;;;;;;4988562;28;20841;-74
2022/05/24 11:34:18;;;;;;;3.70;1.90;;;20.10;99.90;;;;;;4948370;28;20524;-74
2022/05/24 11:37:03;;;;;;;5.03;1.70;;;20.30;99.90;;;;;;4984940;28;20448;-75
2022/05/24 11:39:36;;;;;;;2.33;1.80;;;20.50;99.90;;;;;;4985978;28;20534;-74
2022/05/24 11:42:55;;;;;;;2.00;1.80;;;20.50;99.90;;;;;;4984397;28;20512;-74
2022/05/24 11:45:31;;;;;;;3.40;1.63;;;21.00;99.90;;;;;;4903216;29;20996;-74
2022/05/24 11:48:02;;;;;;;2.00;1.80;;;21.20;99.90;;;;;;4974498;28;20445;-74
2022/05/24 11:50:30;;;;;;;3.13;1.90;;;21.20;99.90;;;;;;4985845;28;20992;-74
2022/05/24 11:53:30;;;;;;;3.23;2.10;;;21.50;99.90;;;;;;4964792;28;20986;-74
2022/05/24 11:55:56;;;;;;;2.60;1.80;;;22.00;99.90;;;;;;4986606;28;20432;-74
2022/05/24 11:58:21;;;;;;;3.40;1.70;;;22.20;99.60;;;;;;4987801;28;21207;-74
2022/05/24 12:01:06;;;;;;;4.43;1.70;;;22.70;98.80;;;;;;4987898;28;20202;-74
2022/05/24 12:10:04;;;;;;;2.70;2.10;;;26.70;90.30;;;;;;4983192;28;20452;-74
2022/05/24 12:12:37;;;;;;;4.13;1.90;;;26.50;85.30;;;;;;4984675;28;20444;-74
2022/05/24 12:15:14;;;;;;;2.37;1.80;;;26.40;84.30;;;;;;4983248;28;20869;-74
2022/05/24 12:17:41;;;;;;;2.13;1.90;;;26.50;82.30;;;;;;4985586;28;20515;-74
2022/05/24 12:20:29;;;;;;;2.00;1.80;;;26.20;81.90;;;;;;4982182;28;20500;-74
2022/05/24 12:23:15;;;;;;;2.20;1.90;;;27.20;78.50;;;;;;4974408;28;20441;-74
2022/05/24 12:26:01;;;;;;;2.20;1.90;;;27.50;73.80;;;;;;4985777;28;20457;-74
2022/05/24 12:28:35;;;;;;;2.20;2.00;;;27.20;69.70;;;;;;4983143;28;20444;-74
2022/05/24 12:31:23;;;;;;;2.70;1.90;;;27.00;71.40;;;;;;4982347;28;20440;-74
2022/05/24 12:34:08;;;;;;;1.70;1.60;;;25.60;72.70;;;;;;4983483;28;20425;-75
2022/05/24 12:36:36;;;;;;;3.27;1.90;;;24.10;76.20;;;;;;4983050;28;20437;-74
2022/05/24 12:39:08;;;;;;;3.20;2.80;;;23.60;79.00;;;;;;4941321;28;1231913;-74
2022/05/24 12:41:38;;;;;;;2.37;2.00;;;25.00;79.50;;;;;;4986490;28;20232;-74
2022/05/24 12:44:22;;;;;;;3.97;2.10;;;25.80;74.10;;;;;;4983981;28;20966;-74
2022/05/24 12:47:11;;;;;;;3.90;2.30;;;25.30;75.30;;;;;;4987290;28;21184;-75
2022/05/24 12:49:52;;;;;;;2.30;2.10;;;26.10;72.90;;;;;;4988734;28;20861;-73
2022/05/24 12:52:32;;;;;;;4.57;3.30;;;26.70;71.50;;;;;;4983337;28;21756;-75
2022/05/24 12:55:00;;;;;;;1.70;1.60;;;27.70;68.00;;;;;;4985241;28;20449;-73
2022/05/24 12:57:32;;;;;;;1.90;1.77;;;27.20;65.50;;;;;;4987532;28;20436;-73
2022/05/24 13:00:09;;;;;;;2.43;1.97;;;26.80;65.20;;;;;;4986409;28;20504;-73
2022/05/24 13:02:55;;;;;;;1.93;1.73;;;25.10;66.10;;;;;;4986783;28;20427;-73
2022/05/24 13:05:29;;;;;;;2.23;1.87;;;24.70;69.20;;;;;;4984502;28;20881;-73
2022/05/24 13:07:57;;;;;;;2.03;1.83;;;24.10;70.50;;;;;;4986490;28;20749;-74
2022/05/24 13:10:30;;;;;;;2.20;1.90;;;23.60;70.90;;;;;;4986898;28;20472;-73
2022/05/24 13:13:10;;;;;;;2.20;1.77;;;23.20;71.40;;;;;;4984925;28;20459;-73
2022/05/24 13:15:43;;;;;;;3.03;1.90;;;22.70;72.20;;;;;;4985540;28;21017;-73
2022/05/24 13:18:31;;;;;;;1.93;1.73;;;22.50;73.50;;;;;;4986888;28;20432;-73
2022/05/24 13:21:02;;;;;;;2.53;2.10;;;22.60;74.60;;;;;;4986361;28;20479;-74
2022/05/24 13:23:34;;;;;;;2.73;1.90;;;22.70;74.20;;;;;;4987218;28;20432;-74
2022/05/24 13:26:06;;;;;;;2.00;1.80;;;22.70;74.20;;;;;;4986441;28;20433;-74
2022/05/24 13:28:36;;;;;;;3.97;2.07;;;23.10;74.10;;;;;;4985688;28;20809;-74
2022/05/24 13:34:24;;;;;;;1.97;1.70;;;25.40;69.30;;;;;;4987691;28;20452;-74
2022/05/24 13:37:02;;;;;;;2.00;1.80;;;26.10;66.80;;;;;;4987339;28;20867;-74
2022/05/24 13:39:46;;;;;;;2.73;1.90;;;27.00;64.80;;;;;;4985539;28;20474;-74
2022/05/24 13:42:28;;;;;;;2.13;1.80;;;27.60;60.90;;;;;;4986766;28;20432;-74
2022/05/24 13:45:27;;;;;;;2.83;2.10;;;27.10;60.10;;;;;;4984554;28;20459;-74
2022/05/24 13:47:58;;;;;;;4.23;2.00;;;25.70;63.50;;;;;;4975079;28;20952;-74
2022/05/24 13:50:33;;;;;;;2.03;1.80;;;25.30;65.80;;;;;;4985598;28;20471;-74
2022/05/24 13:53:25;;;;;;;2.10;1.90;;;26.50;65.60;;;;;;4985802;28;20878;-74